Time;durP1;ratioP1;P1;durP2;ratioP2;P2;SDS_P1;SDS_P2;PMS_P1;PMS_P2;Temp;Humidity;BMP_temperature;BMP_pressure;BME280_temperature;BME280_humidity;BME280_pressure;Samples;Min_cycle;Max_cycle;Signal;HPM_P1;HPM_P2
2022/07/22 00:00:40;;;;;;;2.80;1.10;;;16.50;99.90;;;;;;4984358;28;20053;-80
2022/07/22 00:03:05;;;;;;;3.97;1.48;;;16.50;99.90;;;;;;4986019;28;20493;-80
2022/07/22 00:05:31;;;;;;;2.72;1.20;;;16.50;99.90;;;;;;4987718;28;20057;-80
2022/07/22 00:07:57;;;;;;;5.57;1.45;;;16.50;99.90;;;;;;4987301;28;20052;-80
2022/07/22 00:10:22;;;;;;;3.42;1.20;;;16.50;99.90;;;;;;4986977;28;20085;-80
2022/07/22 00:12:48;;;;;;;4.97;1.40;;;16.50;99.90;;;;;;4988372;28;20050;-80
2022/07/22 00:15:14;;;;;;;8.52;1.60;;;16.50;99.90;;;;;;4992765;28;20144;-80
2022/07/22 00:17:40;;;;;;;4.75;1.45;;;16.60;99.90;;;;;;4995194;28;20112;-80
2022/07/22 00:20:06;;;;;;;4.95;1.30;;;16.50;99.90;;;;;;4991135;28;20049;-80
2022/07/22 00:22:35;;;;;;;5.25;1.30;;;16.60;99.90;;;;;;5003115;28;20518;-80
2022/07/22 00:25:01;;;;;;;4.05;1.40;;;16.60;99.90;;;;;;4993565;28;20070;-80
2022/07/22 00:27:26;;;;;;;3.60;1.30;;;16.60;99.90;;;;;;4994692;28;20135;-81
2022/07/22 00:29:52;;;;;;;6.75;1.88;;;16.60;99.90;;;;;;4961880;28;20087;-81
2022/07/22 00:32:18;;;;;;;4.68;1.73;;;16.60;99.90;;;;;;4978323;28;20053;-80
2022/07/22 00:34:43;;;;;;;4.03;1.40;;;16.60;99.90;;;;;;4978939;28;21024;-80
2022/07/22 00:37:09;;;;;;;8.02;1.60;;;16.40;99.90;;;;;;4986971;28;20121;-81
2022/07/22 00:39:35;;;;;;;3.78;1.35;;;16.60;99.90;;;;;;4979655;28;20052;-81
2022/07/22 00:42:01;;;;;;;4.07;1.33;;;16.60;99.90;;;;;;4962932;28;20049;-81
2022/07/22 00:44:27;;;;;;;5.80;1.38;;;16.60;99.90;;;;;;4988187;28;20053;-81
2022/07/22 00:46:53;;;;;;;5.05;1.63;;;16.60;99.90;;;;;;4972827;28;20059;-83
2022/07/22 00:49:18;;;;;;;4.35;1.88;;;16.60;99.90;;;;;;4978664;28;20494;-81
2022/07/22 00:51:46;;;;;;;3.50;1.42;;;16.60;99.90;;;;;;4988338;28;20049;-81
2022/07/22 00:54:11;;;;;;;5.60;1.60;;;16.60;99.90;;;;;;5002148;28;20072;-81
2022/07/22 00:56:38;;;;;;;3.47;1.35;;;16.60;99.90;;;;;;4978989;28;20050;-82
2022/07/22 00:59:06;;;;;;;3.88;1.60;;;16.50;99.90;;;;;;4986339;28;20433;-81
2022/07/22 01:01:32;;;;;;;5.97;2.05;;;16.50;99.90;;;;;;4998900;28;20068;-81
2022/07/22 01:03:58;;;;;;;3.72;1.60;;;16.50;99.90;;;;;;4979665;28;20141;-80
2022/07/22 01:06:24;;;;;;;4.15;1.55;;;16.60;99.90;;;;;;4970892;28;20045;-81
2022/07/22 01:08:50;;;;;;;4.03;1.50;;;16.50;99.90;;;;;;4994138;28;20053;-81
2022/07/22 01:11:18;;;;;;;3.58;1.23;;;16.50;99.90;;;;;;4973191;28;20111;-81
2022/07/22 01:13:45;;;;;;;3.95;1.15;;;16.50;99.90;;;;;;4988907;28;20044;-81
2022/07/22 01:16:13;;;;;;;3.45;1.30;;;16.50;99.90;;;;;;4976576;28;20050;-81
2022/07/22 01:18:39;;;;;;;4.65;1.25;;;16.50;99.90;;;;;;4999031;28;20053;-81
2022/07/22 01:21:07;;;;;;;4.55;1.50;;;16.50;99.90;;;;;;5002471;28;20060;-80
2022/07/22 01:23:33;;;;;;;6.53;1.52;;;16.50;99.90;;;;;;4993239;28;20092;-81
2022/07/22 01:26:00;;;;;;;4.00;1.52;;;16.50;99.90;;;;;;4991184;28;20053;-82
2022/07/22 01:28:25;;;;;;;4.15;1.45;;;16.50;99.90;;;;;;4970427;28;20052;-81
2022/07/22 01:30:51;;;;;;;3.45;1.15;;;16.50;99.90;;;;;;4985519;28;20145;-81
2022/07/22 01:33:19;;;;;;;5.10;1.25;;;16.40;99.90;;;;;;4987097;28;20222;-81
2022/07/22 01:35:45;;;;;;;4.07;1.38;;;16.40;99.90;;;;;;5002553;28;20041;-81
2022/07/22 01:38:11;;;;;;;2.58;1.05;;;16.40;99.90;;;;;;5000289;28;20421;-80
2022/07/22 01:40:37;;;;;;;2.92;1.20;;;16.40;99.90;;;;;;4970836;28;20064;-81
2022/07/22 01:43:03;;;;;;;6.75;1.40;;;16.30;99.90;;;;;;4971022;28;20045;-80
2022/07/22 01:45:29;;;;;;;4.95;1.73;;;16.30;99.90;;;;;;4971405;28;20050;-81
2022/07/22 01:47:54;;;;;;;4.93;1.30;;;16.30;99.90;;;;;;4972189;28;20136;-81
2022/07/22 01:50:20;;;;;;;5.90;1.27;;;16.40;99.90;;;;;;4978212;28;20092;-81
2022/07/22 01:52:46;;;;;;;2.92;1.15;;;16.30;99.90;;;;;;4969729;28;20110;-81
2022/07/22 01:55:12;;;;;;;4.00;1.40;;;16.30;99.90;;;;;;4969852;28;20481;-80
2022/07/22 01:57:38;;;;;;;2.95;1.10;;;16.30;99.90;;;;;;4995220;28;20049;-81
2022/07/22 02:00:09;;;;;;;4.18;1.40;;;16.30;99.90;;;;;;4988291;28;20046;-80
2022/07/22 02:02:35;;;;;;;4.00;1.30;;;16.30;99.90;;;;;;4977552;28;20045;-81
2022/07/22 02:05:03;;;;;;;4.00;1.33;;;16.30;99.90;;;;;;5001072;28;20446;-81
2022/07/22 02:07:29;;;;;;;4.63;1.60;;;16.30;99.90;;;;;;4987143;28;20085;-81
2022/07/22 02:09:54;;;;;;;3.78;1.52;;;16.30;99.90;;;;;;4972510;28;20081;-81
2022/07/22 02:12:20;;;;;;;5.15;1.30;;;16.30;99.90;;;;;;4996930;28;20033;-81
2022/07/22 02:14:47;;;;;;;3.55;1.20;;;16.30;99.90;;;;;;5002124;28;20052;-81
2022/07/22 02:17:13;;;;;;;4.18;1.20;;;16.30;99.90;;;;;;4985154;28;20049;-81
2022/07/22 02:19:39;;;;;;;3.15;1.20;;;16.30;99.90;;;;;;4999207;28;20057;-81
2022/07/22 02:22:05;;;;;;;3.00;1.30;;;16.30;99.90;;;;;;5002979;28;20046;-81
2022/07/22 02:24:31;;;;;;;4.20;1.30;;;16.30;99.90;;;;;;4990747;28;20067;-81
2022/07/22 02:26:56;;;;;;;5.35;1.35;;;16.30;99.90;;;;;;4970221;28;20343;-81
2022/07/22 02:29:22;;;;;;;2.72;1.23;;;16.30;99.90;;;;;;4976475;28;20061;-81
2022/07/22 02:31:48;;;;;;;2.88;1.15;;;16.30;99.90;;;;;;4985334;28;20359;-81
2022/07/22 02:34:14;;;;;;;1.42;0.90;;;16.30;99.90;;;;;;4958776;28;20049;-81
2022/07/22 02:36:40;;;;;;;2.70;1.35;;;16.30;99.90;;;;;;4985051;28;20038;-81
2022/07/22 02:39:06;;;;;;;1.90;1.20;;;16.30;99.90;;;;;;4986074;28;20103;-81
2022/07/22 02:41:31;;;;;;;4.07;1.10;;;16.30;99.90;;;;;;4962499;28;20045;-80
2022/07/22 02:43:57;;;;;;;3.80;1.27;;;16.30;99.90;;;;;;4988759;28;20104;-81
2022/07/22 02:46:24;;;;;;;4.97;1.30;;;16.30;99.90;;;;;;4976953;28;20085;-81
2022/07/22 02:48:50;;;;;;;5.05;1.35;;;16.30;99.90;;;;;;4969756;28;20045;-81
2022/07/22 02:51:16;;;;;;;2.55;1.10;;;16.30;99.90;;;;;;4987194;28;20046;-81
2022/07/22 02:53:42;;;;;;;2.55;1.20;;;16.30;99.90;;;;;;4976809;28;20494;-80
2022/07/22 02:56:08;;;;;;;3.60;1.20;;;16.30;99.90;;;;;;4985300;28;20573;-81
2022/07/22 02:58:34;;;;;;;4.32;1.25;;;16.30;99.90;;;;;;4985853;28;20411;-82
2022/07/22 03:00:59;;;;;;;3.67;1.27;;;16.30;99.90;;;;;;4987191;28;20070;-82
2022/07/22 03:03:25;;;;;;;3.97;1.42;;;16.20;99.90;;;;;;4975222;28;20088;-81
2022/07/22 03:05:51;;;;;;;2.67;1.58;;;16.20;99.90;;;;;;4993044;28;20129;-81
2022/07/22 03:08:17;;;;;;;4.70;1.48;;;16.30;99.90;;;;;;4991670;28;20045;-81
2022/07/22 03:10:43;;;;;;;4.30;1.60;;;16.30;99.90;;;;;;4970367;28;20045;-80
2022/07/22 03:13:09;;;;;;;5.47;1.50;;;16.30;99.90;;;;;;4983526;28;20088;-81
2022/07/22 03:15:34;;;;;;;5.82;1.63;;;16.30;99.90;;;;;;4985800;28;20042;-81
2022/07/22 03:18:01;;;;;;;5.32;1.40;;;16.30;99.90;;;;;;4971218;28;20050;-81
2022/07/22 03:20:27;;;;;;;5.70;1.60;;;16.30;99.90;;;;;;4986366;28;20446;-81
2022/07/22 03:22:55;;;;;;;6.20;1.55;;;16.30;99.90;;;;;;4986235;28;20045;-80
2022/07/22 03:25:21;;;;;;;5.25;1.27;;;16.30;99.90;;;;;;4969513;28;20079;-81
2022/07/22 03:27:47;;;;;;;4.45;1.60;;;16.30;99.90;;;;;;4984562;28;20821;-82
2022/07/22 03:30:13;;;;;;;5.90;1.70;;;16.30;99.90;;;;;;4984451;28;20137;-81
2022/07/22 03:32:38;;;;;;;7.93;1.33;;;16.30;99.90;;;;;;4985932;28;20124;-81
2022/07/22 03:35:05;;;;;;;5.95;1.80;;;16.30;99.90;;;;;;4959195;28;20045;-81
2022/07/22 03:37:30;;;;;;;6.00;1.30;;;16.30;99.90;;;;;;4977828;28;20045;-80
2022/07/22 03:39:56;;;;;;;6.07;1.52;;;16.20;99.90;;;;;;5005668;28;20048;-81
2022/07/22 03:42:22;;;;;;;5.05;1.40;;;16.20;99.90;;;;;;4988277;28;20054;-81
2022/07/22 03:44:48;;;;;;;5.25;1.50;;;16.20;99.90;;;;;;4979931;28;20144;-80
2022/07/22 03:47:22;;;;;;;3.40;1.60;;;16.20;99.90;;;;;;4987911;28;20453;-81
2022/07/22 03:49:48;;;;;;;4.78;1.20;;;16.20;99.90;;;;;;4993642;28;20046;-81
2022/07/22 03:52:14;;;;;;;3.80;1.35;;;16.10;99.90;;;;;;4963867;28;20055;-81
2022/07/22 03:54:43;;;;;;;4.68;1.27;;;16.10;99.90;;;;;;4972606;28;20166;-81
2022/07/22 03:57:09;;;;;;;3.42;1.17;;;16.10;99.90;;;;;;4996252;28;20104;-81
2022/07/22 03:59:35;;;;;;;5.25;1.52;;;16.10;99.90;;;;;;4971741;28;20440;-81
2022/07/22 04:02:02;;;;;;;4.18;1.20;;;16.10;99.90;;;;;;5005285;28;20041;-81
2022/07/22 04:04:27;;;;;;;3.35;1.23;;;16.10;99.90;;;;;;4993709;28;20513;-80
2022/07/22 04:06:53;;;;;;;3.08;1.20;;;16.10;99.90;;;;;;5006568;28;20065;-81
2022/07/22 04:09:22;;;;;;;2.70;0.90;;;16.10;99.90;;;;;;4978589;28;20490;-81
2022/07/22 04:11:50;;;;;;;2.08;1.10;;;16.10;99.90;;;;;;4989562;28;20054;-81
2022/07/22 04:14:19;;;;;;;3.67;1.20;;;16.10;99.90;;;;;;4989245;28;20129;-81
2022/07/22 04:16:45;;;;;;;2.22;1.20;;;16.10;99.90;;;;;;4987688;28;20107;-80
2022/07/22 04:19:14;;;;;;;3.22;1.70;;;16.10;99.90;;;;;;4995449;28;20058;-81
2022/07/22 04:21:40;;;;;;;3.65;1.20;;;16.10;99.90;;;;;;5002623;28;20124;-81
2022/07/22 04:24:06;;;;;;;3.92;1.45;;;16.10;99.90;;;;;;4986891;28;20041;-82
2022/07/22 04:26:32;;;;;;;2.15;0.98;;;16.20;99.90;;;;;;4993171;28;20077;-80
2022/07/22 04:28:58;;;;;;;3.75;1.20;;;16.20;99.90;;;;;;4979166;28;20073;-81
2022/07/22 04:31:24;;;;;;;3.40;1.02;;;16.20;99.90;;;;;;4972183;28;20053;-81
2022/07/22 04:33:49;;;;;;;2.65;1.20;;;16.20;99.90;;;;;;4979263;28;20076;-81
2022/07/22 04:36:18;;;;;;;5.38;1.83;;;16.20;99.90;;;;;;4972180;28;20045;-81
2022/07/22 04:38:43;;;;;;;5.90;1.40;;;16.20;99.90;;;;;;4972381;28;20440;-81
2022/07/22 04:41:09;;;;;;;4.45;1.40;;;16.30;99.90;;;;;;5003417;28;20045;-81
2022/07/22 04:43:35;;;;;;;5.07;1.70;;;16.30;99.90;;;;;;4978699;28;20107;-81
2022/07/22 04:46:01;;;;;;;2.75;1.30;;;16.30;99.90;;;;;;4972080;28;20132;-81
2022/07/22 04:48:29;;;;;;;6.43;1.35;;;16.30;99.90;;;;;;4986753;28;20478;-81
2022/07/22 04:50:59;;;;;;;3.92;1.40;;;16.30;99.90;;;;;;4978520;28;20049;-81
2022/07/22 04:53:25;;;;;;;3.25;1.10;;;16.30;99.90;;;;;;4986600;28;20126;-82
2022/07/22 04:55:53;;;;;;;4.15;1.20;;;16.30;99.90;;;;;;4978938;28;20046;-81
2022/07/22 04:58:19;;;;;;;3.05;1.30;;;16.30;99.90;;;;;;5001348;28;20390;-81
2022/07/22 05:00:46;;;;;;;3.58;0.90;;;16.30;99.90;;;;;;5003275;28;20565;-81
2022/07/22 05:03:12;;;;;;;3.65;1.20;;;16.30;99.90;;;;;;4970448;28;20172;-81
2022/07/22 05:05:38;;;;;;;2.63;1.20;;;16.40;99.90;;;;;;4986859;28;20136;-81
2022/07/22 05:08:04;;;;;;;5.47;1.30;;;16.40;99.90;;;;;;5004478;28;20491;-81
2022/07/22 05:10:30;;;;;;;3.65;1.08;;;16.30;99.90;;;;;;5002855;28;20053;-81
2022/07/22 05:12:55;;;;;;;5.43;1.40;;;16.40;99.90;;;;;;4987505;28;20046;-81
2022/07/22 05:15:21;;;;;;;5.55;1.15;;;16.40;99.90;;;;;;4977080;28;20533;-82
2022/07/22 05:17:47;;;;;;;4.32;1.20;;;16.40;99.90;;;;;;4977472;28;20060;-80
2022/07/22 05:20:13;;;;;;;4.10;1.10;;;16.40;99.90;;;;;;4986352;28;20462;-80
2022/07/22 05:22:38;;;;;;;2.50;0.95;;;16.40;99.90;;;;;;4979292;28;20058;-81
2022/07/22 05:25:05;;;;;;;5.22;1.20;;;16.40;99.90;;;;;;4995310;28;20050;-80
2022/07/22 05:27:31;;;;;;;3.20;1.10;;;16.40;99.90;;;;;;4985679;28;20139;-81
2022/07/22 05:29:57;;;;;;;4.90;1.23;;;16.40;99.90;;;;;;4978021;28;20064;-81
2022/07/22 05:32:23;;;;;;;3.25;1.10;;;16.40;99.90;;;;;;4985102;28;20049;-81
2022/07/22 05:34:49;;;;;;;4.28;1.27;;;16.50;99.90;;;;;;5000708;28;20053;-83
2022/07/22 05:37:15;;;;;;;2.97;1.38;;;16.50;99.90;;;;;;4971157;28;20054;-85
2022/07/22 05:39:43;;;;;;;4.75;1.40;;;16.60;99.90;;;;;;4977601;28;20056;-82
2022/07/22 05:42:08;;;;;;;3.70;1.30;;;16.60;99.90;;;;;;4986330;28;20450;-84
2022/07/22 05:44:34;;;;;;;5.00;1.20;;;16.60;99.90;;;;;;4986150;28;20357;-83
2022/07/22 05:47:00;;;;;;;2.85;1.02;;;16.60;99.90;;;;;;4972892;28;20088;-84
2022/07/22 05:49:26;;;;;;;4.22;1.13;;;16.60;99.90;;;;;;4969767;28;20085;-84
2022/07/22 05:51:53;;;;;;;3.00;1.10;;;16.70;99.90;;;;;;4985449;28;20065;-83
2022/07/22 05:54:19;;;;;;;3.42;1.17;;;16.70;99.90;;;;;;4986435;28;20499;-84
2022/07/22 05:56:45;;;;;;;5.43;1.40;;;16.70;99.90;;;;;;4986521;28;20046;-87
2022/07/22 05:59:10;;;;;;;5.45;1.20;;;16.70;99.90;;;;;;4976485;28;20091;-80
2022/07/22 06:01:36;;;;;;;2.53;0.98;;;16.80;99.90;;;;;;5000642;28;20048;-81
2022/07/22 06:04:05;;;;;;;4.95;1.30;;;16.80;99.90;;;;;;4970087;28;20051;-81
2022/07/22 06:06:31;;;;;;;6.68;0.98;;;16.80;99.90;;;;;;4994743;28;20057;-87
2022/07/22 06:08:57;;;;;;;4.13;1.13;;;16.80;99.90;;;;;;4979778;28;20083;-80
2022/07/22 06:11:22;;;;;;;3.20;1.10;;;16.90;99.90;;;;;;4978733;28;20049;-79
2022/07/22 06:13:48;;;;;;;2.47;0.82;;;16.90;99.90;;;;;;4970241;28;20061;-80
2022/07/22 06:16:14;;;;;;;2.28;0.80;;;17.00;99.90;;;;;;4994053;28;20057;-79
2022/07/22 06:18:39;;;;;;;1.55;0.93;;;17.00;99.90;;;;;;4985886;28;20199;-80
2022/07/22 06:21:07;;;;;;;2.00;0.88;;;17.00;99.90;;;;;;4970191;28;20088;-79
2022/07/22 06:23:33;;;;;;;5.38;1.10;;;17.10;99.90;;;;;;4986441;28;20045;-80
2022/07/22 06:25:59;;;;;;;4.18;1.40;;;17.10;99.90;;;;;;4976168;28;20446;-80
2022/07/22 06:28:25;;;;;;;3.50;1.08;;;17.20;99.90;;;;;;4984836;28;20053;-79
2022/07/22 06:30:52;;;;;;;5.53;1.10;;;17.20;99.90;;;;;;4986540;28;20049;-79
2022/07/22 06:33:18;;;;;;;5.20;2.17;;;17.20;99.90;;;;;;4970882;28;20123;-78
2022/07/22 06:35:44;;;;;;;3.05;1.10;;;17.30;99.90;;;;;;4969807;28;20038;-78
2022/07/22 06:38:09;;;;;;;3.40;1.20;;;17.30;99.90;;;;;;4983558;28;20065;-78
2022/07/22 06:40:35;;;;;;;2.50;0.85;;;17.30;99.90;;;;;;4999057;28;20038;-78
2022/07/22 06:43:01;;;;;;;4.00;0.93;;;17.40;99.90;;;;;;4991732;28;20513;-82
2022/07/22 06:45:27;;;;;;;4.18;1.10;;;17.40;99.90;;;;;;4991252;28;20084;-82
2022/07/22 06:47:53;;;;;;;2.65;0.90;;;17.40;99.90;;;;;;5002814;28;20033;-80
2022/07/22 06:50:19;;;;;;;4.13;1.00;;;17.40;99.90;;;;;;4969320;28;20046;-78
2022/07/22 06:52:45;;;;;;;2.33;0.70;;;17.50;99.90;;;;;;4985050;28;20462;-80
2022/07/22 06:55:10;;;;;;;2.70;1.00;;;17.50;99.90;;;;;;4992451;28;20041;-78
2022/07/22 06:57:36;;;;;;;2.80;0.90;;;17.60;99.90;;;;;;5004347;28;20388;-78
2022/07/22 07:00:09;;;;;;;3.30;1.02;;;17.60;99.90;;;;;;4986273;28;20520;-81
2022/07/22 07:02:35;;;;;;;3.22;0.88;;;17.60;99.90;;;;;;4992081;28;20042;-81
2022/07/22 07:05:01;;;;;;;3.58;0.90;;;17.70;99.90;;;;;;4968565;28;20053;-78
2022/07/22 07:07:27;;;;;;;2.25;0.80;;;17.70;99.90;;;;;;4973116;28;20046;-80
2022/07/22 07:09:56;;;;;;;1.33;0.60;;;17.70;99.90;;;;;;4976439;28;20055;-82
2022/07/22 07:12:25;;;;;;;1.23;0.70;;;17.70;99.90;;;;;;4960171;28;20132;-79
2022/07/22 07:14:50;;;;;;;3.30;0.65;;;17.70;99.90;;;;;;4988621;28;20053;-80
2022/07/22 07:17:18;;;;;;;0.85;0.63;;;17.70;99.90;;;;;;4996538;28;20045;-79
2022/07/22 07:19:44;;;;;;;5.30;0.93;;;17.70;99.90;;;;;;4974938;28;20053;-79
2022/07/22 07:22:10;;;;;;;3.97;0.93;;;17.80;99.90;;;;;;4976653;28;20050;-80
2022/07/22 07:24:35;;;;;;;2.00;0.90;;;17.80;99.90;;;;;;4988650;28;20689;-79
2022/07/22 07:27:01;;;;;;;4.22;1.15;;;17.90;99.90;;;;;;4983337;28;20053;-80
2022/07/22 07:29:27;;;;;;;3.15;1.00;;;17.90;99.90;;;;;;4973614;28;20077;-80
2022/07/22 07:31:53;;;;;;;7.03;1.25;;;18.00;99.90;;;;;;4995278;28;20457;-78
2022/07/22 07:34:18;;;;;;;5.88;1.30;;;18.10;99.90;;;;;;4972591;28;20058;-80
2022/07/22 07:36:44;;;;;;;3.03;1.10;;;18.10;99.90;;;;;;4995348;28;20526;-79
2022/07/22 07:39:10;;;;;;;4.32;1.30;;;18.10;99.90;;;;;;4978144;28;20049;-80
2022/07/22 07:41:35;;;;;;;3.25;0.90;;;18.20;99.90;;;;;;4962718;28;20343;-81
2022/07/22 07:44:02;;;;;;;2.13;0.90;;;18.20;99.90;;;;;;4978231;28;20053;-80
2022/07/22 07:46:27;;;;;;;7.15;1.10;;;18.30;99.90;;;;;;5003973;28;20406;-81
2022/07/22 07:48:56;;;;;;;2.45;0.93;;;18.40;99.90;;;;;;4973652;28;20111;-80
2022/07/22 07:51:21;;;;;;;2.58;0.80;;;18.40;99.90;;;;;;4996303;28;20049;-80
2022/07/22 07:53:47;;;;;;;2.65;0.90;;;18.30;99.90;;;;;;4996672;28;20604;-81
2022/07/22 07:56:13;;;;;;;4.40;0.70;;;18.30;99.90;;;;;;5002270;28;20042;-80
2022/07/22 07:58:39;;;;;;;1.88;0.70;;;18.30;99.90;;;;;;4992311;28;20054;-81
2022/07/22 08:01:05;;;;;;;1.13;0.52;;;18.20;99.90;;;;;;4989988;28;20045;-82
2022/07/22 08:03:31;;;;;;;2.50;1.00;;;18.10;99.90;;;;;;5004629;28;20045;-81
2022/07/22 08:05:57;;;;;;;1.70;0.70;;;18.10;99.90;;;;;;4984565;28;20483;-81
2022/07/22 08:08:23;;;;;;;2.10;0.90;;;18.10;99.90;;;;;;4982407;28;20046;-81
2022/07/22 08:10:49;;;;;;;1.17;0.60;;;18.10;99.90;;;;;;5001213;28;20053;-80
2022/07/22 08:13:15;;;;;;;2.15;0.80;;;18.10;99.90;;;;;;4981911;28;20449;-80
2022/07/22 08:15:41;;;;;;;4.53;0.90;;;18.20;99.90;;;;;;4984076;28;20116;-81
2022/07/22 08:18:06;;;;;;;1.92;0.68;;;18.30;99.90;;;;;;4969829;28;20526;-82
2022/07/22 08:20:32;;;;;;;3.08;1.17;;;18.30;99.90;;;;;;4974623;28;20406;-82
2022/07/22 08:22:58;;;;;;;2.50;0.90;;;18.30;99.90;;;;;;4999712;28;20058;-81
2022/07/22 08:25:24;;;;;;;2.63;1.05;;;18.30;99.90;;;;;;5003856;28;20046;-82
2022/07/22 08:27:52;;;;;;;1.02;0.50;;;18.30;99.90;;;;;;4990180;28;20049;-80
2022/07/22 08:30:19;;;;;;;2.28;0.80;;;18.30;99.90;;;;;;4986057;28;20053;-81
2022/07/22 08:32:46;;;;;;;1.60;0.80;;;18.20;99.90;;;;;;4991768;28;20099;-80
2022/07/22 08:35:12;;;;;;;2.63;0.80;;;18.20;99.90;;;;;;4971874;28;20504;-80
2022/07/22 08:37:38;;;;;;;2.65;1.00;;;18.10;99.90;;;;;;5001390;28;20041;-79
2022/07/22 08:40:06;;;;;;;2.67;0.85;;;18.10;99.90;;;;;;4986522;28;20049;-79
2022/07/22 08:42:37;;;;;;;1.42;0.60;;;18.10;99.90;;;;;;4971295;28;20061;-80
2022/07/22 08:45:03;;;;;;;2.13;0.70;;;17.10;99.90;;;;;;4987946;28;20430;-80
2022/07/22 08:47:29;;;;;;;2.58;0.63;;;18.10;99.90;;;;;;4984686;28;20601;-79
2022/07/22 08:49:55;;;;;;;1.77;0.60;;;18.20;99.90;;;;;;4986329;28;20077;-81
2022/07/22 08:52:21;;;;;;;1.55;0.50;;;18.30;99.90;;;;;;4985170;28;20057;-80
2022/07/22 08:54:46;;;;;;;3.40;0.80;;;18.30;99.90;;;;;;4975562;28;20046;-80
2022/07/22 08:57:15;;;;;;;2.05;0.80;;;18.40;99.90;;;;;;4974067;28;20106;-80
2022/07/22 08:59:52;;;;;;;3.53;0.85;;;18.50;99.90;;;;;;4987867;28;20053;-79
2022/07/22 09:02:21;;;;;;;1.45;0.60;;;18.50;99.90;;;;;;4988906;28;20076;-80
2022/07/22 09:04:55;;;;;;;1.88;0.73;;;18.40;99.90;;;;;;5001008;28;20506;-79
2022/07/22 09:07:37;;;;;;;3.20;1.17;;;18.60;99.90;;;;;;4994264;28;20068;-78
2022/07/22 09:10:12;;;;;;;2.38;0.88;;;18.70;99.90;;;;;;5008094;28;20394;-82
2022/07/22 09:12:52;;;;;;;3.55;0.85;;;18.70;99.90;;;;;;4995663;28;20057;-84
2022/07/22 09:15:26;;;;;;;3.45;0.88;;;18.80;99.90;;;;;;5006083;28;20045;-82
2022/07/22 09:17:53;;;;;;;1.95;0.80;;;18.80;99.90;;;;;;4995389;28;20315;-84
2022/07/22 09:20:19;;;;;;;2.42;0.80;;;18.80;99.90;;;;;;4995618;28;20046;-84
2022/07/22 09:22:47;;;;;;;1.67;0.70;;;18.90;99.90;;;;;;4989748;28;20049;-86
2022/07/22 09:25:22;;;;;;;1.65;0.80;;;19.20;99.90;;;;;;5005918;28;20053;-86
2022/07/22 09:27:52;;;;;;;2.17;0.97;;;19.00;99.90;;;;;;4978628;28;20076;-87
2022/07/22 09:30:33;;;;;;;;;;;;;;;;;;;;;
2022/07/22 09:33:00;;;;;;;3.53;0.88;;;19.10;99.90;;;;;;5026095;28;20498;-89
2022/07/22 09:35:39;;;;;;;5.72;1.17;;;19.20;99.90;;;;;;4983515;28;20041;-89
2022/07/22 09:38:09;;;;;;;4.75;1.05;;;19.20;99.90;;;;;;4993339;28;20081;-86
2022/07/22 09:40:36;;;;;;;3.55;0.85;;;19.30;99.90;;;;;;4995812;28;20489;-83
2022/07/22 09:43:08;;;;;;;4.10;1.00;;;19.30;99.90;;;;;;4996962;28;20132;-84
2022/07/22 09:45:34;;;;;;;4.10;0.93;;;19.40;99.90;;;;;;4994199;28;20045;-87
2022/07/22 09:48:04;;;;;;;2.28;0.80;;;19.50;99.90;;;;;;4987537;28;20042;-87
2022/07/22 09:50:32;;;;;;;2.13;0.80;;;19.70;99.90;;;;;;4994399;28;20145;-84
2022/07/22 09:53:00;;;;;;;3.08;0.93;;;19.80;99.90;;;;;;5001661;28;20049;-82
2022/07/22 09:55:27;;;;;;;2.83;0.70;;;19.80;99.90;;;;;;4986872;28;20495;-83
2022/07/22 09:57:55;;;;;;;2.65;0.88;;;19.80;99.90;;;;;;5002592;28;20099;-84
2022/07/22 10:00:27;;;;;;;3.20;0.80;;;19.70;99.90;;;;;;4995006;28;20050;-86
2022/07/22 10:02:59;;;;;;;2.17;0.80;;;19.70;99.90;;;;;;5005126;28;20085;-86
2022/07/22 10:05:28;;;;;;;3.85;0.80;;;19.50;99.90;;;;;;4992031;28;20067;-84
2022/07/22 10:07:57;;;;;;;5.40;1.00;;;19.70;99.90;;;;;;4991944;28;20060;-86
2022/07/22 10:10:26;;;;;;;1.67;1.00;;;19.70;99.90;;;;;;4986372;28;20115;-84
2022/07/22 10:13:02;;;;;;;3.67;1.00;;;19.60;99.90;;;;;;5027983;28;20053;-89
2022/07/22 10:15:31;;;;;;;2.90;0.80;;;19.20;99.90;;;;;;4989997;28;20092;-88
2022/07/22 10:18:25;;;;;;;1.98;1.10;;;19.70;99.90;;;;;;4989131;28;20069;-86
2022/07/22 10:21:10;;;;;;;2.28;0.77;;;19.70;99.90;;;;;;4993188;28;20049;-85
2022/07/22 10:24:09;;;;;;;1.90;0.80;;;19.80;99.90;;;;;;4991855;28;20049;-87
2022/07/22 10:26:51;;;;;;;4.10;0.75;;;19.90;99.90;;;;;;4988858;28;20128;-86
2022/07/22 10:29:28;;;;;;;2.42;0.82;;;20.00;99.90;;;;;;4992783;28;20056;-86
2022/07/22 10:32:15;;;;;;;2.22;0.80;;;20.00;99.90;;;;;;5006414;28;20037;-86
2022/07/22 10:35:03;;;;;;;1.90;0.90;;;20.50;99.90;;;;;;4988987;28;20057;-86
2022/07/22 10:37:35;;;;;;;4.93;0.88;;;20.10;99.90;;;;;;4990413;28;20072;-84
2022/07/22 10:40:15;;;;;;;3.47;0.75;;;20.20;99.90;;;;;;4984192;28;20124;-82
2022/07/22 10:42:58;;;;;;;2.92;1.00;;;20.20;99.90;;;;;;4990662;28;20044;-80
2022/07/22 10:45:30;;;;;;;2.47;0.98;;;20.20;99.90;;;;;;5003138;28;20076;-85
2022/07/22 10:48:09;;;;;;;3.40;0.80;;;20.30;99.90;;;;;;4992023;28;20139;-85
2022/07/22 10:50:37;;;;;;;1.88;0.80;;;20.50;99.90;;;;;;5000769;28;20056;-83
2022/07/22 10:53:05;;;;;;;4.90;0.90;;;20.60;99.90;;;;;;4982875;28;20053;-83
2022/07/22 10:55:32;;;;;;;3.00;0.80;;;20.60;99.90;;;;;;4982449;28;20659;-83
2022/07/22 10:57:59;;;;;;;4.25;1.00;;;20.60;99.90;;;;;;4955982;28;20907;-84
2022/07/22 11:00:25;;;;;;;1.70;0.70;;;20.60;99.90;;;;;;4985300;28;20053;-83
2022/07/22 11:02:53;;;;;;;5.55;0.70;;;20.60;99.90;;;;;;4998463;28;20137;-85
2022/07/22 11:05:48;;;;;;;3.17;0.73;;;20.50;99.90;;;;;;4987876;28;20497;-86
2022/07/22 11:08:19;;;;;;;2.35;0.85;;;20.50;99.90;;;;;;4985817;28;20050;-85
2022/07/22 11:10:49;;;;;;;2.50;1.10;;;20.50;99.90;;;;;;4991781;28;20113;-80
2022/07/22 11:13:37;;;;;;;2.70;1.00;;;20.50;99.90;;;;;;4996532;28;20046;-81
2022/07/22 11:16:21;;;;;;;3.15;0.85;;;20.70;99.90;;;;;;4992826;28;20462;-84
2022/07/22 11:18:57;;;;;;;1.17;0.60;;;20.90;99.90;;;;;;5002933;28;20153;-84
2022/07/22 11:21:27;;;;;;;3.92;0.80;;;20.90;99.90;;;;;;4995795;28;20053;-87
2022/07/22 11:23:56;;;;;;;3.08;0.80;;;21.10;99.90;;;;;;4999118;28;20048;-84
2022/07/22 11:26:25;;;;;;;2.53;0.70;;;21.00;99.90;;;;;;4986689;28;20049;-83
2022/07/22 11:28:51;;;;;;;0.98;0.60;;;20.90;99.90;;;;;;4985009;28;20081;-84
2022/07/22 11:31:18;;;;;;;2.33;0.82;;;20.90;99.90;;;;;;4972361;28;20057;-91
2022/07/22 11:33:47;;;;;;;4.10;0.90;;;21.00;99.90;;;;;;4984204;28;20133;-85
2022/07/22 11:36:13;;;;;;;2.55;0.80;;;21.10;99.90;;;;;;4989610;28;20046;-85
2022/07/22 11:38:45;;;;;;;1.55;0.52;;;21.10;99.90;;;;;;5001125;28;20050;-85
2022/07/22 11:41:12;;;;;;;4.18;0.82;;;21.20;99.90;;;;;;4985923;28;20052;-85
2022/07/22 11:43:42;;;;;;;1.42;0.82;;;21.30;99.90;;;;;;4974893;28;20103;-85
2022/07/22 11:46:12;;;;;;;3.75;0.80;;;21.30;99.90;;;;;;4991748;28;20042;-85
2022/07/22 11:48:38;;;;;;;3.08;0.90;;;21.20;99.90;;;;;;5000736;28;20438;-85
2022/07/22 11:51:10;;;;;;;1.83;0.70;;;20.70;99.90;;;;;;4985866;28;20076;-85
2022/07/22 11:53:39;;;;;;;3.67;0.90;;;21.40;99.90;;;;;;4984586;28;20048;-86
2022/07/22 11:56:08;;;;;;;2.70;0.68;;;21.60;99.90;;;;;;4989710;28;20228;-85
2022/07/22 11:58:40;;;;;;;2.80;1.13;;;21.70;99.90;;;;;;4986301;28;20042;-85
2022/07/22 12:01:12;;;;;;;2.88;0.80;;;21.70;99.90;;;;;;4970343;28;20513;-85
2022/07/22 12:03:41;;;;;;;3.17;0.70;;;21.70;99.90;;;;;;4991999;28;20045;-85
2022/07/22 12:06:09;;;;;;;1.73;0.63;;;21.50;99.90;;;;;;4996196;28;20049;-86
2022/07/22 12:08:46;;;;;;;2.45;0.82;;;21.40;99.90;;;;;;4975702;28;20056;-86
2022/07/22 12:11:15;;;;;;;2.55;0.60;;;21.50;99.90;;;;;;5007788;28;20077;-86
2022/07/22 12:13:46;;;;;;;2.10;0.60;;;21.00;99.90;;;;;;4997220;28;20045;-86
2022/07/22 12:16:23;;;;;;;2.08;0.70;;;21.60;99.90;;;;;;5006563;28;20486;-86
2022/07/22 12:18:57;;;;;;;1.27;0.60;;;21.70;99.90;;;;;;5005953;28;20517;-86
2022/07/22 12:21:28;;;;;;;1.55;0.75;;;22.00;99.90;;;;;;5012878;28;20132;-85
2022/07/22 12:24:04;;;;;;;1.40;0.60;;;22.20;99.90;;;;;;4991074;28;20109;-85
2022/07/22 12:26:48;;;;;;;1.23;0.50;;;22.20;99.90;;;;;;4997084;28;20051;-85
2022/07/22 12:29:31;;;;;;;1.60;0.70;;;22.20;99.90;;;;;;4981250;28;20053;-85
2022/07/22 12:32:05;;;;;;;3.22;0.80;;;22.30;99.90;;;;;;5011525;28;20052;-86
2022/07/22 12:34:40;;;;;;;3.10;0.80;;;22.50;99.90;;;;;;5006109;28;20060;-86
2022/07/22 12:37:24;;;;;;;2.95;0.95;;;22.50;99.90;;;;;;5025124;28;20044;-86
2022/07/22 12:40:20;;;;;;;1.98;0.70;;;22.60;99.90;;;;;;4994953;28;20049;-87
2022/07/22 12:42:59;;;;;;;1.95;0.70;;;22.70;99.90;;;;;;5011245;28;20058;-86
2022/07/22 12:45:27;;;;;;;2.42;1.10;;;22.60;99.90;;;;;;4988659;28;20048;-86
2022/07/22 12:47:55;;;;;;;2.13;0.90;;;22.60;99.90;;;;;;4984371;28;20058;-85
2022/07/22 12:50:32;;;;;;;3.78;0.82;;;22.60;99.90;;;;;;4993370;28;20050;-85
2022/07/22 12:53:12;;;;;;;3.08;0.90;;;22.80;99.90;;;;;;5004411;28;20068;-86